createdAt,value
2018-08-28T00:01:17.787Z,9.68
2018-08-28T00:03:46.045Z,9.88
2018-08-28T00:06:14.258Z,9.63
2018-08-28T00:08:42.461Z,9.53
2018-08-28T00:11:10.675Z,9.70
2018-08-28T00:13:38.880Z,9.10
2018-08-28T00:16:07.121Z,9.00
2018-08-28T00:18:35.327Z,9.05
2018-08-28T00:21:03.565Z,8.80
2018-08-28T00:23:31.798Z,8.98
2018-08-28T00:26:00.036Z,9.13
2018-08-28T00:28:28.252Z,8.95
2018-08-28T00:30:56.476Z,8.80
2018-08-28T00:33:24.678Z,8.83
2018-08-28T00:35:52.929Z,8.83
2018-08-28T00:38:21.128Z,9.08
2018-08-28T00:40:49.322Z,8.83
2018-08-28T00:43:17.556Z,9.40
2018-08-28T00:45:45.760Z,9.55
2018-08-28T00:48:13.989Z,9.05
2018-08-28T00:50:42.212Z,8.93
2018-08-28T00:53:10.440Z,7.90
2018-08-28T00:55:38.674Z,8.28
2018-08-28T00:58:06.896Z,8.80
2018-08-28T01:00:35.113Z,7.30
2018-08-28T01:03:04.248Z,7.93
2018-08-28T01:05:32.513Z,7.37
2018-08-28T01:08:00.767Z,7.70
2018-08-28T01:10:29.049Z,7.53
2018-08-28T01:12:57.325Z,7.70
2018-08-28T01:15:25.578Z,7.10
2018-08-28T01:17:53.857Z,7.70
2018-08-28T01:20:22.097Z,6.92
2018-08-28T01:22:50.469Z,7.90
2018-08-28T01:25:18.737Z,7.47
2018-08-28T01:27:47.019Z,6.50
2018-08-28T01:30:19.674Z,6.00
2018-08-28T01:32:47.969Z,6.17
2018-08-28T01:35:16.238Z,6.15
2018-08-28T01:37:44.526Z,6.50
2018-08-28T01:40:12.773Z,6.05
2018-08-28T01:42:41.055Z,5.42
2018-08-28T01:45:09.292Z,6.30
2018-08-28T01:47:37.565Z,6.25
2018-08-28T01:50:05.992Z,6.40
2018-08-28T01:52:34.286Z,5.70
2018-08-28T01:55:02.529Z,5.60
2018-08-28T01:57:30.788Z,5.40
2018-08-28T01:59:59.085Z,5.42
2018-08-28T02:02:27.299Z,5.90
2018-08-28T02:04:55.536Z,5.62
2018-08-28T02:07:23.745Z,4.85
2018-08-28T02:09:51.963Z,4.90
2018-08-28T02:12:20.192Z,5.10
2018-08-28T02:14:48.400Z,5.15
2018-08-28T02:17:16.708Z,4.83
2018-08-28T02:19:44.953Z,4.90
2018-08-28T02:22:13.163Z,5.30
2018-08-28T02:24:41.359Z,4.80
2018-08-28T02:27:09.585Z,5.00
2018-08-28T02:29:37.789Z,5.53
2018-08-28T02:32:06.088Z,4.80
2018-08-28T02:34:34.309Z,4.72
2018-08-28T02:37:02.512Z,5.17
2018-08-28T02:39:30.736Z,4.53
2018-08-28T02:41:58.940Z,4.40
2018-08-28T02:44:27.158Z,4.20
2018-08-28T02:46:55.360Z,4.83
2018-08-28T02:49:23.575Z,4.40
2018-08-28T02:51:51.836Z,5.20
2018-08-28T02:54:20.066Z,4.50
2018-08-28T02:56:48.303Z,4.53
2018-08-28T02:59:16.542Z,5.53
2018-08-28T03:01:44.760Z,4.28
2018-08-28T03:04:12.980Z,3.72
2018-08-28T03:06:41.204Z,3.92
2018-08-28T03:09:09.632Z,4.67
2018-08-28T03:11:37.894Z,4.58
2018-08-28T03:14:06.079Z,4.00
2018-08-28T03:16:34.297Z,4.70
2018-08-28T03:19:02.520Z,4.60
2018-08-28T03:21:30.740Z,4.40
2018-08-28T03:23:58.999Z,4.45
2018-08-28T03:26:27.196Z,4.40
2018-08-28T03:28:55.438Z,4.33
2018-08-28T03:31:23.641Z,4.60
2018-08-28T03:33:51.864Z,4.60
2018-08-28T03:36:20.081Z,4.35
2018-08-28T03:38:48.320Z,4.62
2018-08-28T03:41:16.539Z,5.00
2018-08-28T03:43:44.765Z,4.37
2018-08-28T03:46:12.980Z,4.17
2018-08-28T03:48:41.233Z,4.70
2018-08-28T03:51:09.977Z,4.80
2018-08-28T03:53:38.181Z,4.93
2018-08-28T03:56:06.826Z,4.95
2018-08-28T03:58:35.060Z,4.35
2018-08-28T04:01:03.476Z,5.03
2018-08-28T04:03:31.769Z,4.20
2018-08-28T04:05:59.935Z,4.90
2018-08-28T04:08:28.171Z,4.70
2018-08-28T04:10:56.371Z,4.58
2018-08-28T04:13:24.600Z,4.83
2018-08-28T04:15:52.811Z,4.80
2018-08-28T04:18:21.051Z,4.90
2018-08-28T04:20:49.269Z,4.80
2018-08-28T04:23:17.499Z,4.80
2018-08-28T04:25:45.699Z,5.20
2018-08-28T04:28:13.948Z,5.00
2018-08-28T04:30:42.256Z,4.70
2018-08-28T04:33:10.554Z,4.50
2018-08-28T04:35:38.866Z,4.90
2018-08-28T04:38:07.109Z,5.17
2018-08-28T04:40:35.393Z,4.90
2018-08-28T04:43:04.824Z,5.00
2018-08-28T04:45:33.045Z,5.00
2018-08-28T04:48:01.253Z,5.08
2018-08-28T04:50:29.521Z,4.80
2018-08-28T04:52:57.728Z,4.87
2018-08-28T04:55:25.940Z,5.50
2018-08-28T04:57:54.148Z,4.87
2018-08-28T05:00:22.396Z,5.30
2018-08-28T05:02:50.651Z,5.00
2018-08-28T05:05:18.899Z,5.50
2018-08-28T05:07:47.124Z,4.90
2018-08-28T05:10:15.372Z,5.00
2018-08-28T05:12:44.411Z,5.37
2018-08-28T05:15:13.719Z,5.30
2018-08-28T05:17:41.920Z,4.83
2018-08-28T05:20:10.160Z,5.20
2018-08-28T05:22:38.376Z,5.30
2018-08-28T05:25:06.700Z,5.70
2018-08-28T05:27:34.917Z,5.33
2018-08-28T05:30:03.183Z,4.80
2018-08-28T05:32:31.395Z,5.30
2018-08-28T05:34:59.652Z,5.63
2018-08-28T05:37:28.513Z,6.17
2018-08-28T05:39:56.752Z,5.27
2018-08-28T05:42:25.044Z,5.17
2018-08-28T05:44:53.532Z,4.70
2018-08-28T05:47:21.747Z,5.30
2018-08-28T05:49:49.989Z,5.80
2018-08-28T05:52:18.269Z,6.57
2018-08-28T05:54:46.591Z,5.62
2018-08-28T05:57:15.232Z,5.50
2018-08-28T05:59:43.999Z,5.63
2018-08-28T06:02:12.449Z,6.00
2018-08-28T06:04:41.748Z,5.92
2018-08-28T06:07:11.658Z,5.43
2018-08-28T06:09:41.450Z,5.60
2018-08-28T06:12:11.883Z,6.10
2018-08-28T06:14:41.308Z,6.33
2018-08-28T06:17:10.574Z,6.40
2018-08-28T06:19:40.637Z,6.62
2018-08-28T06:22:10.031Z,6.55
2018-08-28T06:24:39.296Z,5.62
2018-08-28T06:27:08.668Z,5.92
2018-08-28T06:29:38.413Z,6.62
2018-08-28T06:32:07.643Z,7.10
2018-08-28T06:34:37.127Z,6.50
2018-08-28T06:37:06.426Z,6.22
2018-08-28T06:39:36.204Z,5.87
2018-08-28T06:42:05.505Z,6.22
2018-08-28T06:44:34.838Z,6.70
2018-08-28T06:47:04.368Z,5.92
2018-08-28T06:49:33.564Z,6.43
2018-08-28T06:52:03.044Z,6.30
2018-08-28T06:54:32.301Z,5.80
2018-08-28T06:57:00.776Z,6.50
2018-08-28T06:59:28.985Z,5.70
2018-08-28T07:01:57.230Z,6.20
2018-08-28T07:04:25.453Z,6.13
2018-08-28T07:06:53.710Z,5.73
2018-08-28T07:09:21.938Z,5.63
2018-08-28T07:11:50.181Z,5.43
2018-08-28T07:14:18.440Z,5.40
2018-08-28T07:16:46.701Z,5.30
2018-08-28T07:19:14.956Z,5.65
2018-08-28T07:21:43.321Z,5.30
2018-08-28T07:24:11.569Z,5.00
2018-08-28T07:26:39.819Z,5.40
2018-08-28T07:29:08.029Z,5.28
2018-08-28T07:31:36.328Z,5.13
2018-08-28T07:34:04.501Z,5.55
2018-08-28T07:36:32.757Z,4.97
2018-08-28T07:39:00.992Z,5.08
2018-08-28T07:41:30.192Z,4.65
2018-08-28T07:43:58.416Z,4.55
2018-08-28T07:46:26.702Z,4.30
2018-08-28T07:48:54.936Z,4.72
2018-08-28T07:51:23.217Z,4.67
2018-08-28T07:53:51.532Z,4.90
2018-08-28T07:56:19.709Z,4.40
2018-08-28T07:58:47.941Z,5.10
2018-08-28T08:01:16.263Z,4.70
2018-08-28T08:03:44.496Z,4.87
2018-08-28T08:06:12.740Z,4.67
2018-08-28T08:08:40.967Z,4.90
2018-08-28T08:11:09.241Z,5.03
2018-08-28T08:13:37.708Z,5.10
2018-08-28T08:16:06.376Z,5.10
2018-08-28T08:18:34.585Z,4.12
2018-08-28T08:21:02.866Z,5.00
2018-08-28T08:23:31.105Z,4.17
2018-08-28T08:25:59.360Z,4.95
2018-08-28T08:28:27.623Z,4.53
2018-08-28T08:30:55.885Z,4.40
2018-08-28T08:33:24.136Z,4.40
2018-08-28T08:35:52.387Z,4.30
2018-08-28T08:38:20.917Z,4.50
2018-08-28T08:40:49.194Z,5.40
2018-08-28T08:43:17.462Z,3.80
2018-08-28T08:45:45.741Z,4.30
2018-08-28T08:48:13.989Z,4.70
2018-08-28T08:50:42.244Z,4.50
2018-08-28T08:53:10.527Z,3.67
2018-08-28T08:55:38.772Z,3.75
2018-08-28T08:58:08.041Z,3.92
2018-08-28T09:00:36.273Z,3.65
2018-08-28T09:03:04.749Z,4.30
2018-08-28T09:05:32.981Z,4.58
2018-08-28T09:08:01.236Z,4.10
2018-08-28T09:10:29.472Z,4.20
2018-08-28T09:12:57.745Z,4.27
2018-08-28T09:15:25.992Z,4.50
2018-08-28T09:17:54.723Z,3.80
2018-08-28T09:20:22.960Z,3.90
2018-08-28T09:22:51.248Z,4.30
2018-08-28T09:25:19.469Z,3.60
2018-08-28T09:27:47.767Z,3.77
2018-08-28T09:30:16.016Z,4.78
2018-08-28T09:32:44.257Z,4.43
2018-08-28T09:35:12.480Z,4.40
2018-08-28T09:37:40.729Z,4.70
2018-08-28T09:40:08.959Z,4.22
2018-08-28T09:42:37.269Z,4.07
2018-08-28T09:45:05.520Z,4.55
2018-08-28T09:47:33.806Z,4.30
2018-08-28T09:50:02.161Z,4.00
2018-08-28T09:52:30.453Z,4.70
2018-08-28T09:54:58.856Z,3.90
2018-08-28T09:57:27.317Z,4.08
2018-08-28T09:59:55.513Z,4.05
2018-08-28T10:02:23.880Z,4.00
2018-08-28T10:04:52.161Z,4.50
2018-08-28T10:07:20.341Z,3.50
2018-08-28T10:09:48.788Z,3.80
2018-08-28T10:12:17.020Z,4.12
2018-08-28T10:14:45.228Z,4.03
2018-08-28T10:17:13.466Z,4.00
2018-08-28T10:19:41.776Z,3.90
2018-08-28T10:22:10.010Z,3.83
2018-08-28T10:24:38.427Z,3.72
2018-08-28T10:27:06.677Z,4.00
2018-08-28T10:29:34.898Z,3.67
2018-08-28T10:32:03.153Z,4.27
2018-08-28T10:34:31.761Z,4.20
2018-08-28T10:37:00.000Z,4.53
2018-08-28T10:39:28.218Z,4.40
2018-08-28T10:41:56.465Z,4.40
2018-08-28T10:44:24.676Z,4.10
2018-08-28T10:46:53.336Z,3.70
2018-08-28T10:49:21.520Z,4.20
2018-08-28T10:51:49.903Z,4.20
2018-08-28T10:54:18.142Z,4.80
2018-08-28T10:56:46.416Z,4.03
2018-08-28T10:59:14.684Z,4.10
2018-08-28T11:01:42.903Z,3.60
2018-08-28T11:04:11.133Z,4.30
2018-08-28T11:06:39.356Z,4.00
2018-08-28T11:09:07.620Z,4.00
2018-08-28T11:11:35.847Z,4.00
2018-08-28T11:14:04.095Z,3.70
2018-08-28T11:16:32.331Z,4.62
2018-08-28T11:19:00.884Z,4.80
2018-08-28T11:21:29.137Z,4.47
2018-08-28T11:23:57.404Z,4.10
2018-08-28T11:26:25.641Z,4.30
2018-08-28T11:28:53.896Z,4.62
2018-08-28T11:31:23.045Z,3.90
2018-08-28T11:33:51.237Z,4.20
2018-08-28T11:36:19.508Z,4.27
2018-08-28T11:38:47.753Z,4.50
2018-08-28T11:41:15.977Z,5.00
2018-08-28T11:43:44.208Z,4.50
2018-08-28T11:46:12.497Z,4.47
2018-08-28T11:48:40.760Z,5.35
2018-08-28T11:51:09.613Z,4.60
2018-08-28T11:53:37.960Z,5.50
2018-08-28T11:56:06.177Z,5.50
2018-08-28T11:58:34.416Z,5.30
2018-08-28T12:01:02.755Z,5.50
2018-08-28T12:03:32.087Z,5.40
2018-08-28T12:06:00.428Z,5.20
2018-08-28T12:08:28.803Z,5.07
2018-08-28T12:10:57.248Z,5.30
2018-08-28T12:13:25.525Z,5.25
2018-08-28T12:15:53.817Z,5.50
2018-08-28T12:18:22.040Z,5.42
2018-08-28T12:20:50.345Z,5.37
2018-08-28T12:23:18.570Z,5.30
2018-08-28T12:25:46.817Z,5.27
2018-08-28T12:28:15.061Z,4.20
2018-08-28T12:30:43.320Z,4.60
2018-08-28T12:33:11.552Z,4.53
2018-08-28T12:35:39.853Z,4.58
2018-08-28T12:38:08.348Z,4.63
2018-08-28T12:40:36.594Z,4.65
2018-08-28T12:43:04.836Z,4.80
2018-08-28T12:45:33.201Z,4.45
2018-08-28T12:48:01.518Z,4.23
2018-08-28T12:50:29.820Z,4.17
2018-08-28T12:52:58.216Z,4.60
2018-08-28T12:55:26.565Z,4.57
2018-08-28T12:57:54.863Z,4.60
2018-08-28T13:00:23.145Z,4.15
2018-08-28T13:02:51.384Z,4.58
2018-08-28T13:05:19.777Z,4.35
2018-08-28T13:07:48.000Z,4.37
2018-08-28T13:10:16.381Z,5.00
2018-08-28T13:12:44.640Z,4.40
2018-08-28T13:15:12.911Z,4.30
2018-08-28T13:17:41.113Z,3.85
2018-08-28T13:20:09.458Z,5.20
2018-08-28T13:22:37.654Z,4.40
2018-08-28T13:25:06.592Z,4.73
2018-08-28T13:27:34.792Z,4.10
2018-08-28T13:30:03.021Z,4.80
2018-08-28T13:32:32.061Z,4.72
2018-08-28T13:35:00.709Z,4.47
2018-08-28T13:37:29.292Z,5.03
2018-08-28T13:39:57.728Z,4.10
2018-08-28T13:42:26.340Z,4.20
2018-08-28T13:44:54.997Z,4.70
2018-08-28T13:47:24.129Z,5.05
2018-08-28T13:49:52.593Z,4.60
2018-08-28T13:52:21.881Z,4.80
2018-08-28T13:54:50.475Z,5.00
2018-08-28T13:57:18.829Z,5.47
2018-08-28T13:59:47.404Z,5.53
2018-08-28T14:02:17.204Z,5.20
2018-08-28T14:04:49.106Z,5.20
2018-08-28T14:07:17.563Z,5.30
2018-08-28T14:09:46.566Z,4.80
2018-08-28T14:12:15.175Z,5.30
2018-08-28T14:14:43.488Z,5.50
2018-08-28T14:17:12.100Z,5.15
2018-08-28T14:19:40.481Z,5.43
2018-08-28T14:22:09.273Z,5.33
2018-08-28T14:24:37.724Z,6.13
2018-08-28T14:27:07.065Z,5.50
2018-08-28T14:29:35.437Z,4.95
2018-08-28T14:32:04.805Z,5.95
2018-08-28T14:34:33.110Z,5.80
2018-08-28T14:37:01.478Z,5.00
2018-08-28T14:39:29.804Z,5.30
2018-08-28T14:41:58.887Z,5.07
2018-08-28T14:44:27.291Z,5.90
2018-08-28T14:46:57.018Z,6.00
2018-08-28T14:49:25.399Z,5.22
2018-08-28T14:51:54.877Z,5.03
2018-08-28T14:54:23.212Z,6.03
2018-08-28T14:56:51.565Z,5.70
2018-08-28T14:59:19.871Z,5.30
2018-08-28T15:01:48.220Z,4.60
2018-08-28T15:04:16.539Z,5.30
2018-08-28T15:06:44.860Z,5.80
2018-08-28T15:09:13.240Z,5.90
2018-08-28T15:11:43.471Z,5.15
2018-08-28T15:14:12.550Z,5.12
2018-08-28T15:16:40.964Z,5.60
2018-08-28T15:19:09.921Z,5.50
2018-08-28T15:21:38.392Z,6.33
2018-08-28T15:24:06.678Z,5.70
2018-08-28T15:26:34.934Z,5.55
2018-08-28T15:29:03.257Z,5.78
2018-08-28T15:31:31.528Z,6.00
2018-08-28T15:34:00.882Z,5.78
2018-08-28T15:36:29.176Z,5.78
2018-08-28T15:38:57.471Z,5.80
2018-08-28T15:41:25.790Z,6.30
2018-08-28T15:43:54.039Z,5.50
2018-08-28T15:46:22.296Z,5.80
2018-08-28T15:48:50.507Z,6.53
2018-08-28T15:51:18.784Z,6.53
2018-08-28T15:53:47.584Z,5.95
2018-08-28T15:56:15.885Z,6.05
2018-08-28T15:58:44.394Z,6.70
2018-08-28T16:01:12.951Z,6.33
2018-08-28T16:03:41.644Z,6.47
2018-08-28T16:06:09.869Z,6.90
2018-08-28T16:08:38.296Z,6.20
2018-08-28T16:11:06.941Z,6.37
2018-08-28T16:13:35.540Z,5.95
2018-08-28T16:16:03.919Z,6.05
2018-08-28T16:18:32.364Z,5.92
2018-08-28T16:21:00.823Z,6.30
2018-08-28T16:23:31.563Z,7.33
2018-08-28T16:26:00.229Z,5.90
2018-08-28T16:28:29.044Z,6.40
2018-08-28T16:30:57.546Z,6.62
2018-08-28T16:33:26.040Z,6.50
2018-08-28T16:35:55.172Z,6.80
2018-08-28T16:38:23.665Z,6.90
2018-08-28T16:40:52.053Z,6.97
2018-08-28T16:43:20.424Z,6.40
2018-08-28T16:45:48.696Z,6.57
2018-08-28T16:48:16.963Z,7.13
2018-08-28T16:50:45.196Z,5.90
2018-08-28T16:53:13.445Z,6.87
2018-08-28T16:55:41.803Z,6.07
2018-08-28T16:58:10.030Z,6.30
2018-08-28T17:00:38.308Z,6.35
2018-08-28T17:03:06.536Z,6.53
2018-08-28T17:05:34.915Z,6.30
2018-08-28T17:08:03.149Z,6.23
2018-08-28T17:10:31.376Z,7.10
2018-08-28T17:12:59.645Z,6.47
2018-08-28T17:15:28.553Z,6.77
2018-08-28T17:17:57.341Z,6.42
2018-08-28T17:20:25.583Z,6.90
2018-08-28T17:22:53.884Z,6.70
2018-08-28T17:25:22.117Z,7.40
2018-08-28T17:27:50.858Z,6.87
2018-08-28T17:30:19.288Z,6.90
2018-08-28T17:32:47.860Z,7.13
2018-08-28T17:35:16.919Z,6.60
2018-08-28T17:37:45.344Z,6.17
2018-08-28T17:40:13.881Z,7.00
2018-08-28T17:42:42.793Z,6.23
2018-08-28T17:45:11.233Z,6.60
2018-08-28T17:47:39.650Z,6.70
2018-08-28T17:50:08.325Z,6.60
2018-08-28T17:52:36.945Z,7.05
2018-08-28T17:55:05.359Z,7.00
2018-08-28T17:57:33.906Z,6.00
2018-08-28T18:00:02.225Z,6.60
2018-08-28T18:02:30.784Z,6.30
2018-08-28T18:04:59.318Z,6.58
2018-08-28T18:07:27.892Z,6.50
2018-08-28T18:09:56.392Z,6.37
2018-08-28T18:12:25.004Z,6.63
2018-08-28T18:14:56.385Z,6.80
2018-08-28T18:17:24.682Z,7.10
2018-08-28T18:19:52.992Z,7.10
2018-08-28T18:22:21.335Z,6.40
2018-08-28T18:24:49.529Z,7.00
2018-08-28T18:27:17.769Z,7.37
2018-08-28T18:29:46.075Z,6.72
2018-08-28T18:32:14.366Z,7.13
2018-08-28T18:34:42.688Z,7.20
2018-08-28T18:37:10.998Z,7.10
2018-08-28T18:39:39.280Z,7.25
2018-08-28T18:42:07.576Z,7.03
2018-08-28T18:44:35.799Z,7.90
2018-08-28T18:47:04.180Z,7.47
2018-08-28T18:49:32.341Z,6.72
2018-08-28T18:52:00.644Z,6.74
2018-08-28T18:54:28.863Z,7.03
2018-08-28T18:56:57.112Z,7.17
2018-08-28T18:59:25.346Z,7.28
2018-08-28T19:01:54.616Z,7.80
2018-08-28T19:04:22.811Z,7.13
2018-08-28T19:06:51.048Z,7.10
2018-08-28T19:09:19.304Z,8.10
2018-08-28T19:11:48.084Z,7.58
2018-08-28T19:14:16.444Z,7.75
2018-08-28T19:16:44.660Z,7.60
2018-08-28T19:19:12.952Z,8.15
2018-08-28T19:21:41.193Z,7.80
2018-08-28T19:24:09.446Z,7.30
2018-08-28T19:26:37.673Z,7.73
2018-08-28T19:29:05.984Z,6.40
2018-08-28T19:31:34.356Z,7.70
2018-08-28T19:34:02.638Z,7.45
2018-08-28T19:36:30.872Z,7.70
2018-08-28T19:38:59.149Z,7.70
2018-08-28T19:41:27.361Z,7.60
2018-08-28T19:43:55.694Z,7.40
2018-08-28T19:46:23.928Z,7.80
2018-08-28T19:48:52.305Z,7.83
2018-08-28T19:51:20.648Z,8.30
2018-08-28T19:53:48.920Z,7.55
2018-08-28T19:56:17.975Z,8.00
2018-08-28T19:58:46.240Z,7.50
2018-08-28T20:01:14.456Z,8.13
2018-08-28T20:03:42.687Z,7.85
2018-08-28T20:06:10.908Z,8.30
2018-08-28T20:08:39.154Z,8.10
2018-08-28T20:11:07.456Z,8.33
2018-08-28T20:13:35.688Z,8.20
2018-08-28T20:16:03.929Z,8.10
2018-08-28T20:18:32.173Z,8.20
2018-08-28T20:21:00.401Z,8.17
2018-08-28T20:23:28.728Z,8.38
2018-08-28T20:25:56.952Z,8.87
2018-08-28T20:28:25.212Z,8.20
2018-08-28T20:30:53.425Z,8.23
2018-08-28T20:33:21.704Z,8.73
2018-08-28T20:35:49.985Z,8.70
2018-08-28T20:38:18.268Z,9.17
2018-08-28T20:40:47.585Z,8.00
2018-08-28T20:43:15.948Z,9.53
2018-08-28T20:45:44.253Z,8.70
2018-08-28T20:48:12.504Z,8.90
2018-08-28T20:50:41.447Z,8.57
2018-08-28T20:53:09.772Z,8.77
2018-08-28T20:55:38.004Z,8.37
2018-08-28T20:58:07.035Z,9.77
2018-08-28T21:00:36.813Z,9.40
2018-08-28T21:03:05.637Z,8.63
2018-08-28T21:05:33.888Z,8.63
2018-08-28T21:08:02.490Z,9.30
2018-08-28T21:10:31.213Z,8.83
2018-08-28T21:12:59.843Z,9.67
2018-08-28T21:15:28.024Z,8.57
2018-08-28T21:17:56.253Z,9.40
2018-08-28T21:20:24.484Z,9.40
2018-08-28T21:22:52.725Z,8.80
2018-08-28T21:25:20.973Z,8.83
2018-08-28T21:27:49.189Z,9.13
2018-08-28T21:30:17.424Z,9.40
2018-08-28T21:32:45.748Z,9.43
2018-08-28T21:35:14.029Z,8.98
2018-08-28T21:37:42.252Z,10.00
2018-08-28T21:40:10.490Z,9.70
2018-08-28T21:42:38.720Z,10.30
2018-08-28T21:45:06.940Z,9.45
2018-08-28T21:47:35.143Z,8.93
2018-08-28T21:50:03.401Z,9.98
2018-08-28T21:52:31.632Z,8.93
2018-08-28T21:54:59.875Z,9.15
2018-08-28T21:57:28.079Z,9.40
2018-08-28T21:59:56.319Z,9.13
2018-08-28T22:02:24.537Z,8.90
2018-08-28T22:04:52.777Z,9.03
2018-08-28T22:07:26.320Z,9.28
2018-08-28T22:09:54.553Z,9.90
2018-08-28T22:12:22.820Z,9.10
2018-08-28T22:14:51.057Z,10.10
2018-08-28T22:17:19.252Z,9.43
2018-08-28T22:19:47.476Z,9.18
2018-08-28T22:22:15.697Z,9.43
2018-08-28T22:24:43.997Z,8.85
2018-08-28T22:27:12.234Z,8.45
2018-08-28T22:29:40.492Z,8.80
2018-08-28T22:32:08.699Z,8.45
2018-08-28T22:34:36.938Z,8.40
2018-08-28T22:37:05.609Z,8.05
2018-08-28T22:39:33.920Z,8.75
2018-08-28T22:42:02.157Z,7.90
2018-08-28T22:44:30.402Z,8.28
2018-08-28T22:46:58.604Z,9.47
2018-08-28T22:49:26.880Z,8.55
2018-08-28T22:51:55.128Z,8.18
2018-08-28T22:54:23.380Z,8.28
2018-08-28T22:56:51.592Z,9.10
2018-08-28T22:59:19.837Z,9.08
2018-08-28T23:01:48.035Z,8.38
2018-08-28T23:04:16.257Z,8.90
2018-08-28T23:06:44.487Z,9.10
2018-08-28T23:09:12.718Z,8.60
2018-08-28T23:11:40.956Z,8.13
2018-08-28T23:14:09.180Z,8.50
2018-08-28T23:16:37.392Z,8.55
2018-08-28T23:19:05.700Z,8.40
2018-08-28T23:21:33.936Z,8.58
2018-08-28T23:24:02.163Z,8.90
2018-08-28T23:26:30.375Z,8.80
2018-08-28T23:28:58.600Z,8.80
2018-08-28T23:31:26.813Z,9.00
2018-08-28T23:33:55.032Z,8.65
2018-08-28T23:36:23.247Z,8.80
2018-08-28T23:38:51.496Z,8.68
2018-08-28T23:41:19.851Z,9.05
2018-08-28T23:43:48.064Z,8.87
2018-08-28T23:46:16.304Z,9.10
2018-08-28T23:48:44.583Z,9.28
2018-08-28T23:51:12.835Z,9.60
2018-08-28T23:53:41.049Z,9.45
2018-08-28T23:56:09.271Z,8.33
2018-08-28T23:58:37.566Z,8.60
